Somers, CT (06071)

6:27 AM EDT on July 26, 2016 (GMT -0400)
Somers Wx @Heron Pond | | Change Station
Active Advisory: Air Quality Alert Active Notice: Record Report

Elev 265 ft 42.00 °N, 72.44 °W | Updated 3 seconds ago

Clear
Clear
66.9 °F
Feels Like 66.9 °F
N
0.0
Wind Variable Wind from South
Gusts 0.0 mph

Today
High -- | Low -- °F
--% Chance of Precip.
Yesterday
High -- | Low -- °F
Precip. -- in
Pressure 29.84 in
Visibility 10.0 miles
Clouds Clear
Dew Point 66 °F
Humidity 96%
Rainfall 0.00 in
Snow Depth Not available.
5:37 AM 8:14 PM
Waning Gibbous, 56% visible
METAR KBDL 260951Z 25005KT 10SM CLR 20/18 A2984 RMK AO2 SLP105 T02000178
Pressure 29.84 in
Visibility 10.0 miles
Clouds Clear
Dew Point 66 °F
Humidity 96%
Rainfall 0.00 in
Snow Depth Not available.
5:37 AM 8:14 PM
Waning Gibbous, 56% visible
METAR KBDL 260951Z 25005KT 10SM CLR 20/18 A2984 RMK AO2 SLP105 T02000178

10-Day Weather Forecast

Almanac

Astronomy

Jul. 26, 2016 Rise Set
Actual Time
Civil Twilight
Nautical Twilight
Astronomical Twilight
Moon
Length of Visible Light
Length of Day
Tomorrow will be .
, % of the Moon is Illuminated

Today's Extremes

State Highs State Lows

Community

WunderPhotos

Upload Photos

1,927,557 photos uploaded!

WunderBlog® & News

Nearby

Air Quality

  Air Quality AQ Index Pollutant
Not available.

Snow Depth

Station Depth Elevation

Earthquake Activity

City Distance Mag. Time & Date
Minimum magnitude displayed is 2.5.

Coastal Water Temperatures

Place Temperature

Stations

Nearby Weather Stations

Station Location Temp. Windchill Dew Point Humidity Wind Precip. Elev Updated Type
                   

Watches & Warnings

Air Quality Alert
Issued: 9:40 AM EDT Jul. 25, 2016 – National Weather Service

... Air quality alert in effect until 10 PM EDT this evening...

The Connecticut department of environmental protection has issued an
air quality action day for ground level ozone... in effect until
10 PM EDT this evening.

An air quality action day means that ground level ozone
concentrations within the region may approach or exceed unhealthy
standards. For additional information... please visit the
Connecticut department of environmental protection website at...

Http://www.CT.Gov/deep/aqi /all lowercase letters/



940 am EDT Mon Jul 25 2016

... Air quality alert in effect until 10 PM EDT this evening...

The Connecticut department of environmental protection has issued an
air quality action day for ground level ozone... in effect until
10 PM EDT this evening.

An air quality action day means that ground level ozone
concentrations within the region may approach or exceed unhealthy
standards. For additional information... please visit the
Connecticut department of environmental protection website at...

Http://www.CT.Gov/deep/aqi /all lowercase letters/